Time;durP1;ratioP1;P1;durP2;ratioP2;P2;SDS_P1;SDS_P2;PMS_P1;PMS_P2;Temp;Humidity;BMP_temperature;BMP_pressure;BME280_temperature;BME280_humidity;BME280_pressure;Samples;Min_cycle;Max_cycle;Signal;HPM_P1;HPM_P2
2023/10/24 00:01:27;;;;;;;3.95;2.80;;;;;;;2.52;87.36;98066.69;5094696;28;20055;-59
2023/10/24 00:03:53;;;;;;;3.33;2.78;;;;;;;2.49;87.24;98067.94;5094242;28;20043;-59
2023/10/24 00:06:19;;;;;;;3.72;2.95;;;;;;;2.44;87.03;98067.78;5094505;28;20185;-59
2023/10/24 00:08:44;;;;;;;5.25;2.83;;;;;;;2.51;87.20;98071.13;5094378;28;20066;-60
2023/10/24 00:11:10;;;;;;;3.28;2.97;;;;;;;2.58;87.05;98076.28;5075951;28;20236;-60
2023/10/24 00:13:36;;;;;;;3.17;2.88;;;;;;;2.57;87.16;98085.16;5093614;28;20044;-59
2023/10/24 00:16:01;;;;;;;4.00;3.03;;;;;;;2.57;87.70;98080.72;5094056;28;20550;-59
2023/10/24 00:18:28;;;;;;;3.75;2.88;;;;;;;2.60;87.00;98089.97;5093974;28;20291;-60
2023/10/24 00:20:54;;;;;;;4.43;3.03;;;;;;;2.61;87.48;98088.94;5093652;28;20489;-60
2023/10/24 00:23:20;;;;;;;5.43;3.67;;;;;;;2.62;87.67;98083.50;5093346;28;20051;-60
2023/10/24 00:25:46;;;;;;;5.30;3.42;;;;;;;2.63;87.38;98087.72;5093657;28;20511;-59
2023/10/24 00:28:12;;;;;;;4.70;3.28;;;;;;;2.66;87.04;98089.09;5074527;28;20075;-60
2023/10/24 00:30:39;;;;;;;3.83;3.25;;;;;;;2.61;87.44;98087.13;5093720;28;20063;-57
2023/10/24 00:33:05;;;;;;;4.18;3.45;;;;;;;2.67;87.81;98082.81;5058711;28;20040;-59
2023/10/24 00:35:32;;;;;;;4.53;3.10;;;;;;;2.71;87.27;98078.78;5075567;28;20032;-61
2023/10/24 00:37:58;;;;;;;4.88;3.63;;;;;;;2.70;87.33;98091.03;5093249;28;20048;-60
2023/10/24 00:40:23;;;;;;;4.40;3.45;;;;;;;2.71;87.25;98094.47;5075222;28;20044;-61
2023/10/24 00:42:50;;;;;;;5.32;4.05;;;;;;;2.72;87.42;98090.84;5093437;28;20044;-58
2023/10/24 00:45:16;;;;;;;5.05;4.00;;;;;;;2.75;87.38;98090.41;5075138;28;20040;-60
2023/10/24 00:47:43;;;;;;;6.65;3.88;;;;;;;2.80;87.32;98095.78;5093603;28;20084;-59
2023/10/24 00:50:09;;;;;;;6.18;4.18;;;;;;;2.80;87.27;98093.16;5058457;28;20060;-60
2023/10/24 00:52:36;;;;;;;6.15;3.78;;;;;;;2.76;87.34;98099.84;5075089;28;20051;-61
2023/10/24 00:55:05;;;;;;;4.53;3.50;;;;;;;2.78;87.38;98104.88;5041430;28;20052;-59
2023/10/24 00:57:31;;;;;;;5.10;3.95;;;;;;;2.80;87.86;98103.63;5075085;28;20394;-61
2023/10/24 00:59:57;;;;;;;4.40;3.30;;;;;;;2.80;87.46;98105.44;5092611;28;20039;-61
2023/10/24 01:02:23;;;;;;;4.78;4.10;;;;;;;2.87;87.18;98103.56;5074686;28;20042;-62
2023/10/24 01:04:51;;;;;;;6.03;3.80;;;;;;;2.91;87.11;98107.31;5074340;28;20497;-60
2023/10/24 01:07:16;;;;;;;5.35;4.00;;;;;;;2.94;86.86;98123.41;5056181;28;20044;-60
2023/10/24 01:09:42;;;;;;;5.18;3.65;;;;;;;2.93;87.09;98124.41;5074460;28;20065;-60
2023/10/24 01:12:09;;;;;;;5.47;3.90;;;;;;;2.93;87.02;98121.78;5074216;28;20044;-60
2023/10/24 01:14:35;;;;;;;5.70;4.00;;;;;;;2.98;87.11;98120.34;5092185;28;20416;-58
2023/10/24 01:17:09;;;;;;;4.78;3.85;;;;;;;2.96;86.66;98125.78;5057622;28;20044;-59
2023/10/24 01:19:34;;;;;;;4.22;3.33;;;;;;;2.90;87.06;98126.66;5074298;28;20040;-61
2023/10/24 01:22:02;;;;;;;5.47;4.20;;;;;;;2.86;87.46;98131.53;5074548;28;20040;-59
2023/10/24 01:24:28;;;;;;;5.05;4.13;;;;;;;2.81;87.63;98139.25;5074151;28;20093;-60
2023/10/24 01:26:56;;;;;;;5.63;4.30;;;;;;;2.85;87.82;98129.94;5071037;28;20061;-60
2023/10/24 01:29:22;;;;;;;7.20;4.60;;;;;;;2.91;87.82;98136.94;5071200;28;20048;-60
2023/10/24 01:31:48;;;;;;;6.22;4.55;;;;;;;2.91;87.55;98138.72;5071308;28;20048;-59
2023/10/24 01:34:14;;;;;;;6.82;4.70;;;;;;;2.94;88.42;98144.34;5072591;28;20048;-60
2023/10/24 01:36:39;;;;;;;6.72;4.65;;;;;;;2.94;88.28;98148.75;5072729;28;20452;-59
2023/10/24 01:39:07;;;;;;;9.80;4.85;;;;;;;2.93;88.11;98144.56;5070421;28;20040;-59
2023/10/24 01:41:34;;;;;;;6.85;4.88;;;;;;;2.89;88.65;98146.03;5054666;28;20520;-60
2023/10/24 01:43:59;;;;;;;10.90;4.05;;;;;;;2.86;88.45;98149.88;5072190;28;20493;-60
2023/10/24 01:46:25;;;;;;;7.95;5.05;;;;;;;2.90;88.68;98145.00;5071809;28;20049;-60
2023/10/24 01:48:51;;;;;;;9.75;5.50;;;;;;;2.98;89.30;98147.31;5072097;28;20093;-60
2023/10/24 01:51:19;;;;;;;7.75;5.13;;;;;;;2.89;89.22;98148.63;5069915;28;20059;-60
2023/10/24 01:53:46;;;;;;;10.98;6.38;;;;;;;2.88;89.59;98147.00;5072347;28;20052;-59
2023/10/24 01:56:12;;;;;;;19.38;6.07;;;;;;;2.91;89.33;98149.19;5070830;28;20052;-60
2023/10/24 01:58:39;;;;;;;9.45;5.93;;;;;;;2.92;89.79;98150.81;5070731;28;20045;-61
2023/10/24 02:01:06;;;;;;;26.75;6.50;;;;;;;2.94;89.74;98159.22;5069975;28;20048;-57
2023/10/24 02:03:33;;;;;;;19.63;6.15;;;;;;;2.97;89.83;98161.41;5072064;28;20062;-59
2023/10/24 02:05:59;;;;;;;17.02;6.15;;;;;;;2.95;89.71;98169.50;5071927;28;20481;-59
2023/10/24 02:08:25;;;;;;;20.58;6.85;;;;;;;2.94;90.04;98167.91;5072061;28;20040;-59
2023/10/24 02:10:51;;;;;;;19.52;7.13;;;;;;;2.86;90.23;98170.00;5071996;28;20442;-60
2023/10/24 02:13:17;;;;;;;15.63;7.50;;;;;;;2.90;90.54;98173.78;5070710;28;20071;-58
2023/10/24 02:15:43;;;;;;;13.75;6.70;;;;;;;2.88;90.18;98174.00;5070424;28;20505;-58
2023/10/24 02:18:09;;;;;;;15.25;6.57;;;;;;;2.78;90.66;98191.22;5053885;28;20036;-58
2023/10/24 02:20:37;;;;;;;14.65;6.70;;;;;;;2.77;91.19;98195.66;5070484;28;20486;-59
2023/10/24 02:23:03;;;;;;;14.30;7.97;;;;;;;2.79;91.37;98188.38;5072035;28;20036;-59
2023/10/24 02:25:29;;;;;;;15.63;7.65;;;;;;;2.82;91.43;98198.41;5070321;28;20060;-60
2023/10/24 02:27:55;;;;;;;18.20;7.80;;;;;;;2.90;91.32;98205.97;5083181;28;20659;-59
2023/10/24 02:30:21;;;;;;;18.20;7.38;;;;;;;2.89;90.72;98209.63;5057383;28;20054;-60
2023/10/24 02:32:49;;;;;;;15.75;7.55;;;;;;;2.85;90.78;98210.25;5073552;28;20115;-59
2023/10/24 02:35:15;;;;;;;16.63;7.07;;;;;;;2.81;91.17;98206.50;5073848;28;20039;-57
2023/10/24 02:37:41;;;;;;;17.42;7.53;;;;;;;2.80;91.82;98205.69;5073777;28;20072;-59
2023/10/24 02:40:10;;;;;;;12.00;6.53;;;;;;;2.77;91.44;98210.56;5091522;28;20139;-60
2023/10/24 02:42:36;;;;;;;17.63;7.35;;;;;;;2.71;91.80;98202.56;5073594;28;20429;-62
2023/10/24 02:45:03;;;;;;;14.80;7.22;;;;;;;2.78;92.15;98217.38;5091638;28;20044;-60
2023/10/24 02:47:31;;;;;;;16.48;7.75;;;;;;;2.84;92.52;98217.31;5073966;28;20055;-60
2023/10/24 02:49:57;;;;;;;13.45;7.25;;;;;;;2.91;91.54;98210.22;5091581;28;20044;-59
2023/10/24 02:52:22;;;;;;;20.13;7.57;;;;;;;2.90;91.26;98210.44;5091829;28;20435;-56
2023/10/24 02:54:49;;;;;;;14.20;6.65;;;;;;;3.00;91.86;98199.44;5073599;28;20105;-60
2023/10/24 02:57:16;;;;;;;16.42;7.65;;;;;;;2.97;90.92;98203.28;5091262;28;20101;-57
2023/10/24 02:59:42;;;;;;;13.77;7.30;;;;;;;2.92;91.02;98219.66;5073542;28;20127;-60
2023/10/24 03:02:07;;;;;;;14.27;8.05;;;;;;;2.86;90.67;98217.91;5056799;28;20040;-60
2023/10/24 03:04:35;;;;;;;14.93;7.88;;;;;;;2.88;91.09;98221.13;5073335;28;20143;-59
2023/10/24 03:07:02;;;;;;;12.75;7.85;;;;;;;2.88;90.07;98223.75;5073057;28;20134;-62
2023/10/24 03:09:27;;;;;;;16.08;8.02;;;;;;;2.86;88.58;98219.75;5073697;28;20044;-62
2023/10/24 03:11:53;;;;;;;13.30;8.27;;;;;;;2.84;88.24;98219.16;5073355;28;20047;-61
2023/10/24 03:14:19;;;;;;;15.40;8.68;;;;;;;2.85;88.23;98224.16;5072408;28;20412;-59
2023/10/24 03:16:45;;;;;;;15.15;8.75;;;;;;;2.90;88.30;98228.75;5091551;28;20070;-60
2023/10/24 03:19:11;;;;;;;13.38;8.23;;;;;;;2.86;87.98;98231.00;5056755;28;20071;-60
2023/10/24 03:21:37;;;;;;;13.43;8.65;;;;;;;2.94;88.11;98228.13;5091471;28;20409;-59
2023/10/24 03:24:02;;;;;;;14.88;8.80;;;;;;;3.05;87.51;98239.66;5091124;28;20051;-59
2023/10/24 03:26:28;;;;;;;16.10;8.60;;;;;;;3.02;87.11;98241.94;5073224;28;20139;-62
2023/10/24 03:28:54;;;;;;;13.13;8.30;;;;;;;3.01;86.81;98250.81;5090726;28;20052;-60
2023/10/24 03:31:20;;;;;;;13.38;8.68;;;;;;;2.88;87.41;98236.84;5090225;28;20075;-61
2023/10/24 03:33:45;;;;;;;15.05;8.65;;;;;;;3.02;87.20;98239.31;5090742;28;20067;-61
2023/10/24 03:36:14;;;;;;;18.38;9.00;;;;;;;3.03;86.39;98243.50;5091254;28;20044;-60
2023/10/24 03:38:40;;;;;;;14.35;8.90;;;;;;;3.01;86.19;98248.19;5091102;28;20040;-61
2023/10/24 03:41:07;;;;;;;14.88;9.25;;;;;;;2.95;86.11;98252.47;5090891;28;20040;-58
2023/10/24 03:43:34;;;;;;;14.05;8.90;;;;;;;2.92;86.53;98261.56;5090766;28;20051;-60
2023/10/24 03:46:07;;;;;;;17.30;9.73;;;;;;;2.81;86.52;98261.44;5090486;28;20036;-60
2023/10/24 03:48:33;;;;;;;16.50;9.18;;;;;;;2.75;86.77;98270.97;5090808;28;20048;-61
2023/10/24 03:51:00;;;;;;;14.52;8.52;;;;;;;2.69;86.72;98263.97;5091135;28;20048;-59
2023/10/24 03:53:26;;;;;;;17.48;8.88;;;;;;;2.77;87.01;98258.47;5090617;28;20047;-60
2023/10/24 03:55:57;;;;;;;15.18;8.20;;;;;;;2.62;86.63;98268.47;5091015;28;20442;-60
2023/10/24 03:58:23;;;;;;;14.93;9.68;;;;;;;2.67;87.18;98279.84;5056223;28;20413;-60
2023/10/24 04:00:49;;;;;;;16.17;8.88;;;;;;;2.68;87.90;98293.78;5091037;28;20047;-60
2023/10/24 04:03:17;;;;;;;16.20;8.15;;;;;;;2.66;87.40;98286.13;5093826;28;20115;-60
2023/10/24 04:05:43;;;;;;;17.80;9.80;;;;;;;2.79;87.19;98290.44;5094305;28;20044;-59
2023/10/24 04:08:09;;;;;;;17.58;9.27;;;;;;;2.77;86.49;98295.09;5094321;28;20051;-58
2023/10/24 04:10:35;;;;;;;15.43;9.25;;;;;;;2.74;86.99;98292.91;5059639;28;20517;-60
2023/10/24 04:13:01;;;;;;;17.98;9.73;;;;;;;2.69;87.38;98303.22;5075813;28;20097;-58
2023/10/24 04:15:27;;;;;;;14.35;9.05;;;;;;;2.72;86.85;98300.16;5094188;28;20446;-59
2023/10/24 04:17:54;;;;;;;17.17;9.57;;;;;;;2.73;87.21;98302.56;5093978;28;20040;-62
2023/10/24 04:20:20;;;;;;;14.95;8.75;;;;;;;2.75;86.71;98304.97;5076192;28;20040;-60
2023/10/24 04:22:49;;;;;;;17.77;10.18;;;;;;;2.80;87.22;98307.75;5094009;28;20519;-61
2023/10/24 04:25:15;;;;;;;17.33;9.25;;;;;;;2.78;86.46;98315.00;5094056;28;20195;-60
2023/10/24 04:27:41;;;;;;;17.60;10.35;;;;;;;2.81;87.12;98316.41;5075417;28;20058;-60
2023/10/24 04:30:07;;;;;;;16.85;9.35;;;;;;;2.77;87.19;98323.09;5093829;28;20122;-58
2023/10/24 04:32:33;;;;;;;20.05;10.77;;;;;;;2.84;87.11;98323.84;5075588;28;20047;-59
2023/10/24 04:35:00;;;;;;;17.42;9.50;;;;;;;2.85;86.29;98330.66;5075746;28;20039;-62
2023/10/24 04:37:26;;;;;;;20.92;10.27;;;;;;;2.82;86.86;98333.72;5093469;28;20408;-60
2023/10/24 04:39:54;;;;;;;18.92;10.18;;;;;;;2.86;86.55;98334.91;5075415;28;20092;-60
2023/10/24 04:42:20;;;;;;;17.42;9.35;;;;;;;2.88;86.65;98344.16;5059091;28;20043;-59
2023/10/24 04:44:45;;;;;;;21.65;10.35;;;;;;;2.88;86.63;98341.53;5093809;28;20036;-60
2023/10/24 04:47:11;;;;;;;16.70;9.75;;;;;;;2.93;86.76;98351.34;5093942;28;20045;-60
2023/10/24 04:49:37;;;;;;;18.80;9.73;;;;;;;3.03;86.28;98354.31;5093679;28;20046;-60
2023/10/24 04:52:03;;;;;;;18.35;10.20;;;;;;;3.02;85.49;98354.50;5093666;28;20044;-60
2023/10/24 04:54:29;;;;;;;20.45;10.25;;;;;;;3.05;84.82;98357.50;5093308;28;20048;-60
2023/10/24 04:56:55;;;;;;;20.25;10.80;;;;;;;3.12;85.23;98347.78;5093420;28;20046;-58
2023/10/24 04:59:20;;;;;;;18.42;10.23;;;;;;;3.14;84.24;98358.03;5093091;28;20123;-57
2023/10/24 05:01:46;;;;;;;18.83;10.05;;;;;;;3.13;83.25;98367.69;5093190;28;20134;-58
2023/10/24 05:04:12;;;;;;;16.90;9.43;;;;;;;3.11;84.05;98368.94;5074770;28;20040;-58
2023/10/24 05:06:38;;;;;;;17.70;9.85;;;;;;;3.10;83.94;98375.19;5074708;28;20413;-59
2023/10/24 05:09:03;;;;;;;18.33;9.50;;;;;;;3.19;83.36;98369.47;5092710;28;20043;-59
2023/10/24 05:11:29;;;;;;;16.55;10.13;;;;;;;3.25;83.30;98367.00;5092838;28;20040;-60
2023/10/24 05:13:55;;;;;;;17.23;9.45;;;;;;;3.26;82.80;98369.41;5072882;28;20031;-58
2023/10/24 05:16:21;;;;;;;15.43;9.02;;;;;;;3.13;82.52;98377.38;5072104;28;20124;-60
2023/10/24 05:18:47;;;;;;;14.93;8.40;;;;;;;3.15;83.33;98386.63;5072174;28;20128;-60
2023/10/24 05:21:12;;;;;;;16.33;8.95;;;;;;;3.08;82.49;98388.47;5090493;28;20532;-59
2023/10/24 05:23:38;;;;;;;15.73;8.98;;;;;;;3.07;83.11;98389.50;5091081;28;20048;-61
2023/10/24 05:26:04;;;;;;;18.50;9.85;;;;;;;3.02;83.57;98394.56;5092311;28;20058;-60
2023/10/24 05:28:30;;;;;;;16.67;9.05;;;;;;;2.94;83.63;98400.06;5081613;28;20048;-60
2023/10/24 05:30:56;;;;;;;15.70;9.45;;;;;;;3.05;83.58;98403.81;5071725;28;20055;-60
2023/10/24 05:33:22;;;;;;;15.15;8.80;;;;;;;3.06;83.87;98400.19;5072329;28;20480;-59
2023/10/24 05:35:48;;;;;;;17.67;9.85;;;;;;;3.05;83.91;98402.00;5058925;28;20413;-60
2023/10/24 05:38:14;;;;;;;20.85;11.02;;;;;;;3.17;83.28;98395.06;5092098;28;20123;-61
2023/10/24 05:40:40;;;;;;;18.67;9.60;;;;;;;3.23;83.45;98408.31;5092269;28;20123;-59
2023/10/24 05:43:06;;;;;;;19.08;10.60;;;;;;;3.26;83.28;98408.69;5090996;28;20040;-59
2023/10/24 05:45:32;;;;;;;19.48;10.70;;;;;;;3.22;83.50;98410.13;5086245;28;20413;-58
2023/10/24 05:47:58;;;;;;;17.42;10.10;;;;;;;3.29;83.21;98405.63;5089682;28;20040;-60
2023/10/24 05:50:24;;;;;;;21.02;10.65;;;;;;;3.38;82.83;98408.78;5090011;28;20074;-59
2023/10/24 05:52:50;;;;;;;17.15;9.30;;;;;;;3.28;82.42;98411.91;5091265;28;20036;-60
2023/10/24 05:55:17;;;;;;;17.15;9.48;;;;;;;3.27;82.27;98410.31;5072853;28;20032;-58
2023/10/24 05:57:43;;;;;;;17.65;9.57;;;;;;;3.12;83.10;98413.25;5076189;28;20468;-59
2023/10/24 06:00:09;;;;;;;20.45;10.25;;;;;;;3.10;83.20;98412.63;5084256;28;20031;-60
2023/10/24 06:02:35;;;;;;;17.73;9.82;;;;;;;3.18;82.59;98407.16;5073889;28;20036;-61
2023/10/24 06:05:02;;;;;;;19.52;10.18;;;;;;;3.17;83.34;98426.47;5091824;28;20465;-59
2023/10/24 06:07:30;;;;;;;17.02;9.43;;;;;;;3.13;83.62;98427.94;5091966;28;20055;-60
2023/10/24 06:09:56;;;;;;;23.85;10.65;;;;;;;3.17;83.76;98426.47;5072969;28;20341;-59
2023/10/24 06:12:21;;;;;;;19.00;9.93;;;;;;;3.16;83.67;98424.88;5091781;28;20055;-60
2023/10/24 06:14:47;;;;;;;17.23;10.48;;;;;;;3.08;84.45;98427.75;5090952;28;20570;-59
2023/10/24 06:17:17;;;;;;;15.80;10.25;;;;;;;3.04;84.36;98428.41;5073317;28;20047;-59
2023/10/24 06:19:45;;;;;;;19.45;10.43;;;;;;;3.06;84.13;98421.94;5091105;28;20125;-58
2023/10/24 06:22:11;;;;;;;17.42;10.60;;;;;;;3.10;84.50;98436.22;5091647;28;20506;-59
2023/10/24 06:24:36;;;;;;;16.88;10.30;;;;;;;3.12;83.50;98438.63;5090909;28;20050;-57
2023/10/24 06:27:02;;;;;;;17.23;9.48;;;;;;;3.17;82.51;98442.19;5091236;28;20083;-60
2023/10/24 06:29:29;;;;;;;20.15;10.55;;;;;;;3.17;82.56;98444.00;5072405;28;20089;-58
2023/10/24 06:31:56;;;;;;;20.52;10.00;;;;;;;3.28;83.06;98456.44;5091180;28;20044;-59
2023/10/24 06:34:22;;;;;;;18.77;9.85;;;;;;;3.32;82.44;98457.59;5090547;28;20131;-60
2023/10/24 06:36:48;;;;;;;18.98;9.50;;;;;;;3.45;82.04;98453.28;5073384;28;20480;-60
2023/10/24 06:39:14;;;;;;;14.80;8.60;;;;;;;3.41;81.03;98450.28;5056204;28;20085;-58
2023/10/24 06:41:40;;;;;;;15.13;8.95;;;;;;;3.45;81.39;98459.31;5091334;28;20050;-60
2023/10/24 06:44:05;;;;;;;16.25;9.55;;;;;;;3.47;80.88;98457.31;5090815;28;20406;-59
2023/10/24 06:46:31;;;;;;;15.38;8.80;;;;;;;3.40;80.90;98470.44;5091327;28;20383;-59
2023/10/24 06:48:57;;;;;;;17.23;8.90;;;;;;;3.26;80.86;98461.06;5072500;28;20040;-58
2023/10/24 06:51:24;;;;;;;17.38;8.90;;;;;;;3.19;81.47;98466.34;5090828;28;20046;-59
2023/10/24 06:53:50;;;;;;;16.13;9.05;;;;;;;3.20;82.04;98469.78;5072404;28;20064;-59
2023/10/24 06:56:16;;;;;;;17.08;9.73;;;;;;;3.25;82.37;98467.34;5090963;28;20036;-60
2023/10/24 06:58:41;;;;;;;16.67;9.20;;;;;;;3.35;82.39;98472.91;5090633;28;20059;-59
2023/10/24 07:01:07;;;;;;;15.32;8.80;;;;;;;3.23;82.55;98479.03;5091504;28;20405;-58
2023/10/24 07:03:33;;;;;;;18.83;9.80;;;;;;;3.17;83.11;98480.69;5091082;28;20044;-60
2023/10/24 07:05:59;;;;;;;18.35;10.18;;;;;;;3.28;83.32;98479.19;5072938;28;20036;-57
2023/10/24 07:08:24;;;;;;;19.63;10.25;;;;;;;3.31;82.89;98473.53;5073014;28;20039;-58
2023/10/24 07:10:50;;;;;;;25.20;9.52;;;;;;;3.28;82.62;98477.38;5090954;28;20044;-59
2023/10/24 07:13:16;;;;;;;18.42;10.05;;;;;;;3.39;82.63;98479.31;5091232;28;20044;-59
2023/10/24 07:15:42;;;;;;;18.25;10.43;;;;;;;3.34;82.88;98484.38;5072889;28;20094;-58
2023/10/24 07:18:10;;;;;;;20.70;10.98;;;;;;;3.36;82.89;98486.81;5091241;28;20067;-58
2023/10/24 07:20:39;;;;;;;18.90;10.52;;;;;;;3.35;82.87;98493.88;5072431;28;20039;-58
2023/10/24 07:23:06;;;;;;;19.85;10.30;;;;;;;3.32;82.99;98496.09;5073147;28;20047;-58
2023/10/24 07:25:32;;;;;;;18.15;9.32;;;;;;;3.31;83.36;98520.69;5072733;28;20489;-59
2023/10/24 07:27:57;;;;;;;18.08;9.93;;;;;;;3.14;84.67;98513.31;5085606;28;20052;-58
2023/10/24 07:30:24;;;;;;;20.85;10.35;;;;;;;3.00;84.69;98518.84;5085026;28;20043;-60
2023/10/24 07:32:53;;;;;;;22.15;9.80;;;;;;;2.67;83.87;98527.66;5090782;28;20078;-60
2023/10/24 07:35:21;;;;;;;17.77;8.90;;;;;;;2.40;84.02;98532.16;5090634;28;20048;-60
2023/10/24 07:37:47;;;;;;;22.38;9.93;;;;;;;2.23;84.45;98539.63;5075257;28;20413;-60
2023/10/24 07:40:13;;;;;;;22.67;10.15;;;;;;;2.19;84.42;98554.94;5076400;28;20036;-56
2023/10/24 07:42:38;;;;;;;25.45;10.55;;;;;;;2.08;84.47;98542.47;5059995;28;20054;-60
2023/10/24 07:45:05;;;;;;;22.77;9.85;;;;;;;2.02;84.65;98553.75;5094539;28;20136;-60
2023/10/24 07:47:31;;;;;;;17.38;7.88;;;;;;;1.87;84.38;98559.19;5095037;28;20042;-60
2023/10/24 07:49:56;;;;;;;20.70;10.13;;;;;;;1.95;84.58;98555.56;5094100;28;20044;-60
2023/10/24 07:52:22;;;;;;;24.65;11.48;;;;;;;1.95;84.11;98550.34;5094670;28;20052;-60
2023/10/24 07:54:48;;;;;;;20.45;9.77;;;;;;;1.90;84.08;98547.53;5075471;28;20059;-60
2023/10/24 07:57:14;;;;;;;20.02;9.88;;;;;;;1.93;84.34;98547.13;5059100;28;20048;-60
2023/10/24 07:59:40;;;;;;;20.95;10.30;;;;;;;2.00;84.09;98543.50;5093911;28;20402;-60
2023/10/24 08:02:05;;;;;;;21.95;10.93;;;;;;;2.12;83.93;98554.16;5076175;28;20078;-60
2023/10/24 08:04:32;;;;;;;19.42;10.07;;;;;;;2.13;83.17;98560.97;5093536;28;20403;-58
2023/10/24 08:06:59;;;;;;;18.35;9.27;;;;;;;2.07;81.83;98558.38;5094440;28;20455;-59
2023/10/24 08:09:24;;;;;;;17.38;9.38;;;;;;;2.02;81.40;98558.97;5093513;28;20043;-60
2023/10/24 08:11:50;;;;;;;17.38;9.35;;;;;;;2.04;81.15;98562.19;5075997;28;20051;-59
2023/10/24 08:14:16;;;;;;;17.58;9.02;;;;;;;1.98;79.53;98573.47;5093750;28;20062;-59
2023/10/24 08:16:41;;;;;;;15.57;8.20;;;;;;;1.96;78.76;98571.03;5094228;28;20055;-59
2023/10/24 08:19:07;;;;;;;17.27;8.77;;;;;;;1.91;78.76;98570.84;5093653;28;20036;-60
2023/10/24 08:21:33;;;;;;;16.17;8.45;;;;;;;1.83;79.81;98560.59;5075981;28;20046;-59
2023/10/24 08:23:59;;;;;;;18.90;8.57;;;;;;;1.84;79.41;98566.63;5093422;28;20501;-60
2023/10/24 08:26:24;;;;;;;13.18;7.63;;;;;;;1.90;79.28;98569.22;5075913;28;20047;-59
2023/10/24 08:28:50;;;;;;;18.10;8.60;;;;;;;2.02;78.85;98569.44;5081765;28;20067;-60
2023/10/24 08:31:16;;;;;;;17.00;8.05;;;;;;;2.01;78.32;98578.28;5093884;28;20066;-60
2023/10/24 08:33:42;;;;;;;15.48;7.95;;;;;;;1.88;77.78;98576.47;5093427;28;20047;-60
2023/10/24 08:36:07;;;;;;;22.52;9.98;;;;;;;2.01;78.29;98573.84;5093793;28;20078;-60
2023/10/24 08:38:33;;;;;;;17.33;8.45;;;;;;;2.04;78.18;98578.69;5093366;28;20044;-60
2023/10/24 08:40:59;;;;;;;19.70;9.13;;;;;;;2.14;77.57;98580.88;5093525;28;20040;-59
2023/10/24 08:43:25;;;;;;;14.88;7.30;;;;;;;2.03;77.28;98587.53;5075797;28;20097;-60
2023/10/24 08:45:51;;;;;;;17.17;8.45;;;;;;;2.08;77.29;98596.56;5074996;28;20040;-60
2023/10/24 08:48:18;;;;;;;16.08;8.05;;;;;;;2.11;77.25;98585.72;5093182;28;20481;-62
2023/10/24 08:50:44;;;;;;;17.45;7.82;;;;;;;2.12;76.93;98584.69;5093014;28;20097;-60
2023/10/24 08:53:13;;;;;;;13.20;7.68;;;;;;;2.25;76.49;98577.66;5074352;28;20044;-60
2023/10/24 08:55:46;;;;;;;17.08;8.10;;;;;;;2.13;76.84;98586.31;5053358;28;20417;-60
2023/10/24 08:58:15;;;;;;;16.85;8.27;;;;;;;2.18;76.95;98594.38;5054043;28;20041;-59
2023/10/24 09:00:41;;;;;;;15.63;8.15;;;;;;;2.05;77.03;98605.63;5053562;28;20044;-60
2023/10/24 09:03:06;;;;;;;14.90;8.35;;;;;;;2.03;77.34;98602.44;5092926;28;20044;-60
2023/10/24 09:05:32;;;;;;;16.67;8.50;;;;;;;2.00;76.89;98601.00;5092342;28;20036;-60
2023/10/24 09:07:59;;;;;;;16.42;9.13;;;;;;;2.12;77.22;98595.97;5074815;28;20056;-61
2023/10/24 09:10:25;;;;;;;14.55;8.13;;;;;;;2.21;76.85;98609.66;5092881;28;20058;-59
2023/10/24 09:12:56;;;;;;;16.73;8.80;;;;;;;2.25;77.01;98600.38;5092473;28;20541;-60
2023/10/24 09:15:22;;;;;;;16.45;8.50;;;;;;;2.25;76.65;98609.03;5075035;28;20148;-59
2023/10/24 09:17:48;;;;;;;18.55;9.80;;;;;;;2.28;77.19;98620.91;5092922;28;20496;-60
2023/10/24 09:20:17;;;;;;;14.98;8.35;;;;;;;2.20;76.05;98605.41;5092579;28;20077;-61
2023/10/24 09:22:43;;;;;;;16.33;8.90;;;;;;;2.14;76.80;98614.88;5074447;28;20520;-60
2023/10/24 09:25:09;;;;;;;17.48;8.73;;;;;;;2.20;76.62;98605.41;5092438;28;20040;-61
2023/10/24 09:27:34;;;;;;;16.77;7.57;;;;;;;2.24;76.83;98612.66;5090536;28;20048;-60
2023/10/24 09:30:11;;;;;;;11.77;7.00;;;;;;;2.30;75.59;98605.03;5048710;28;20079;-60
2023/10/24 09:32:39;;;;;;;15.45;7.55;;;;;;;2.35;74.33;98613.03;5092310;28;20528;-59
2023/10/24 09:35:05;;;;;;;11.52;7.20;;;;;;;2.45;73.85;98619.47;5074322;28;20039;-61
2023/10/24 09:37:31;;;;;;;12.90;7.15;;;;;;;2.49;73.37;98612.81;5074578;28;20268;-62
2023/10/24 09:40:01;;;;;;;11.40;6.68;;;;;;;2.71;73.40;98615.22;5090762;28;20747;-59
2023/10/24 09:42:31;;;;;;;11.93;7.15;;;;;;;2.89;73.25;98620.59;5092732;28;20066;-61
2023/10/24 09:45:04;;;;;;;12.05;6.07;;;;;;;2.90;71.13;98605.69;5073583;28;20101;-60
2023/10/24 09:47:32;;;;;;;10.52;7.07;;;;;;;2.85;71.07;98614.13;5092652;28;20052;-60
2023/10/24 09:49:59;;;;;;;9.13;6.10;;;;;;;2.76;70.99;98619.81;5092049;28;20119;-60
2023/10/24 09:52:26;;;;;;;10.35;5.82;;;;;;;2.62;70.95;98619.88;5092302;28;20044;-60
2023/10/24 09:54:53;;;;;;;8.98;6.20;;;;;;;2.50;71.57;98617.06;5091878;28;20409;-59
2023/10/24 09:57:20;;;;;;;10.63;6.40;;;;;;;2.42;72.85;98625.13;5092587;28;20127;-59
2023/10/24 09:59:47;;;;;;;12.50;6.97;;;;;;;2.41;73.52;98622.69;5091181;28;20040;-56
2023/10/24 10:02:19;;;;;;;12.70;6.68;;;;;;;2.34;73.75;98629.75;5092266;28;20213;-60
2023/10/24 10:04:47;;;;;;;11.88;7.05;;;;;;;2.37;73.94;98638.00;5073672;28;20126;-59
2023/10/24 10:07:14;;;;;;;10.13;6.65;;;;;;;2.36;73.77;98648.69;5092425;28;20047;-59
2023/10/24 10:09:42;;;;;;;13.50;6.95;;;;;;;2.31;72.72;98641.41;5057348;28;20040;-57
2023/10/24 10:12:12;;;;;;;9.05;6.20;;;;;;;2.28;72.65;98653.09;5092157;28;20108;-59
2023/10/24 10:14:49;;;;;;;9.93;6.10;;;;;;;2.17;73.52;98652.88;5091530;28;20044;-60
2023/10/24 10:17:25;;;;;;;11.13;6.75;;;;;;;2.09;73.68;98658.31;5091728;28;20042;-58
2023/10/24 10:20:09;;;;;;;12.10;6.63;;;;;;;2.12;73.81;98668.34;5073310;28;20552;-57
2023/10/24 10:23:11;;;;;;;12.77;7.28;;;;;;;2.12;73.52;98673.59;5055583;28;20105;-58
2023/10/24 10:26:26;;;;;;;9.65;5.82;;;;;;;2.04;73.83;98674.59;5091580;28;20051;-57
2023/10/24 10:29:08;;;;;;;12.57;6.45;;;;;;;2.03;73.49;98680.84;5053569;28;20059;-59
2023/10/24 10:31:59;;;;;;;10.70;6.63;;;;;;;1.87;73.56;98673.38;5071217;28;20412;-59
2023/10/24 10:34:36;;;;;;;10.27;6.43;;;;;;;1.96;73.68;98675.59;5070869;28;20047;-58
2023/10/24 10:37:03;;;;;;;11.65;7.70;;;;;;;1.91;74.45;98671.97;5071443;28;20123;-56
2023/10/24 10:39:29;;;;;;;12.88;7.15;;;;;;;1.94;74.12;98675.00;5070732;28;20051;-61
2023/10/24 10:41:55;;;;;;;11.90;7.10;;;;;;;1.97;73.94;98679.00;5070164;28;20071;-59
2023/10/24 10:44:36;;;;;;;11.15;6.35;;;;;;;1.93;74.65;98688.25;5070766;28;20416;-59
2023/10/24 10:47:02;;;;;;;;;;;;;;;1.97;74.18;98673.78;5069235;28;20079;-59
2023/10/24 10:49:57;;;;;;;13.98;7.43;;;;;;;1.95;74.67;98684.44;5067650;28;19946;-58
2023/10/24 10:52:32;;;;;;;13.90;7.68;;;;;;;2.04;75.06;98691.09;5069714;28;20135;-60
2023/10/24 10:55:09;;;;;;;13.45;8.10;;;;;;;2.01;74.28;98688.06;5050940;28;20036;-59
2023/10/24 10:57:47;;;;;;;15.18;8.55;;;;;;;2.00;74.68;98704.75;5070736;28;20132;-60
2023/10/24 11:00:15;;;;;;;13.90;8.25;;;;;;;2.01;74.75;98709.78;5069481;28;20044;-59
2023/10/24 11:02:58;;;;;;;10.63;7.32;;;;;;;2.03;74.52;98710.41;5068007;28;20041;-60
2023/10/24 11:05:40;;;;;;;18.85;7.00;;;;;;;1.92;74.62;98704.94;5068434;28;20062;-57
2023/10/24 11:08:11;;;;;;;8.88;5.68;;;;;;;1.89;73.21;98711.38;5068264;28;20418;-60
2023/10/24 11:10:55;;;;;;;11.30;5.50;;;;;;;1.82;72.90;98713.16;5071447;28;20053;-57
2023/10/24 11:13:38;;;;;;;11.05;5.32;;;;;;;1.87;72.00;98708.16;5074906;28;20044;-60
2023/10/24 11:16:06;;;;;;;9.48;5.15;;;;;;;1.84;71.94;98712.97;5074944;28;20044;-57
2023/10/24 11:18:32;;;;;;;5.85;3.85;;;;;;;1.87;70.41;98718.59;5056877;28;20531;-59
2023/10/24 11:20:59;;;;;;;6.00;3.50;;;;;;;1.95;69.85;98715.00;5073113;28;20037;-58
2023/10/24 11:23:26;;;;;;;5.95;3.90;;;;;;;1.96;70.49;98717.41;5073261;28;20516;-60
2023/10/24 11:25:54;;;;;;;5.70;3.53;;;;;;;1.94;71.20;98721.22;5073151;28;20395;-61
2023/10/24 11:28:20;;;;;;;5.82;3.47;;;;;;;1.95;71.58;98731.50;5081446;28;20059;-59
2023/10/24 11:30:45;;;;;;;5.57;3.30;;;;;;;1.97;71.61;98726.88;5073391;28;20476;-60
2023/10/24 11:33:11;;;;;;;6.10;3.83;;;;;;;1.94;72.07;98736.91;5076382;28;20044;-59
2023/10/24 11:35:37;;;;;;;5.68;3.53;;;;;;;1.97;72.14;98739.94;5094899;28;20044;-58